createdAt,value
2023-04-09T00:00:19.011Z,3.83
2023-04-09T00:03:07.947Z,3.82
2023-04-09T00:05:41.504Z,3.80
2023-04-09T00:08:09.781Z,3.79
2023-04-09T00:10:38.144Z,3.77
2023-04-09T00:13:07.538Z,3.77
2023-04-09T00:15:36.385Z,3.77
2023-04-09T00:18:04.866Z,3.77
2023-04-09T00:20:33.166Z,3.77
2023-04-09T00:23:01.519Z,3.77
2023-04-09T00:25:29.857Z,3.77
2023-04-09T00:27:59.100Z,3.77
2023-04-09T00:30:32.444Z,3.77
2023-04-09T00:33:01.196Z,3.75
2023-04-09T00:35:31.489Z,3.75
2023-04-09T00:38:03.461Z,3.75
2023-04-09T00:40:31.649Z,3.73
2023-04-09T00:42:59.929Z,3.72
2023-04-09T00:45:28.239Z,3.70
2023-04-09T00:47:57.511Z,3.70
2023-04-09T00:50:26.197Z,3.69
2023-04-09T00:52:54.713Z,3.68
2023-04-09T00:55:23.695Z,3.69
2023-04-09T00:57:51.813Z,3.67
2023-04-09T01:00:20.221Z,3.66
2023-04-09T01:02:49.394Z,3.65
2023-04-09T01:05:17.836Z,3.64
2023-04-09T01:08:18.360Z,3.65
2023-04-09T01:11:07.490Z,3.64
2023-04-09T01:13:56.182Z,3.64
2023-04-09T01:16:24.615Z,3.63
2023-04-09T01:18:59.214Z,3.63
2023-04-09T01:21:33.204Z,3.61
2023-04-09T01:24:13.934Z,3.61
2023-04-09T01:27:05.776Z,3.63
2023-04-09T01:29:53.571Z,3.63
2023-04-09T01:32:23.059Z,3.62
2023-04-09T01:34:52.654Z,3.64
2023-04-09T01:37:26.481Z,3.63
2023-04-09T01:39:56.930Z,3.64
2023-04-09T01:42:26.486Z,3.64
2023-04-09T01:44:57.305Z,3.63
2023-04-09T01:47:27.666Z,3.63
2023-04-09T01:49:55.806Z,3.62
2023-04-09T01:52:24.426Z,3.60
2023-04-09T01:54:53.062Z,3.58
2023-04-09T01:57:21.096Z,3.58
2023-04-09T01:59:49.359Z,3.57
2023-04-09T02:02:34.524Z,3.57
2023-04-09T02:05:09.023Z,3.57
2023-04-09T02:07:43.993Z,3.56
2023-04-09T02:10:14.364Z,3.52
2023-04-09T02:12:49.152Z,3.51
2023-04-09T02:15:19.697Z,3.50
2023-04-09T02:17:48.583Z,3.51
2023-04-09T02:20:20.517Z,3.51
2023-04-09T02:22:49.283Z,3.50
2023-04-09T02:25:18.641Z,3.49
2023-04-09T02:27:47.137Z,3.49
2023-04-09T02:30:18.268Z,3.49
2023-04-09T02:32:46.456Z,3.48
2023-04-09T02:35:15.491Z,3.50
2023-04-09T02:37:43.862Z,3.49
2023-04-09T02:40:12.537Z,3.48
2023-04-09T02:42:41.108Z,3.47
2023-04-09T02:45:11.009Z,3.46
2023-04-09T02:47:39.154Z,3.44
2023-04-09T02:50:08.730Z,3.43
2023-04-09T02:52:37.783Z,3.42
2023-04-09T02:55:06.788Z,3.43
2023-04-09T02:57:35.000Z,3.43
2023-04-09T03:00:05.555Z,3.43
2023-04-09T03:02:34.002Z,3.43
2023-04-09T03:05:02.728Z,3.42
2023-04-09T03:07:32.118Z,3.41
2023-04-09T03:10:00.307Z,3.40
2023-04-09T03:12:29.030Z,3.40
2023-04-09T03:14:57.127Z,3.37
2023-04-09T03:17:28.083Z,3.38
2023-04-09T03:19:56.724Z,3.38
2023-04-09T03:22:24.994Z,3.35
2023-04-09T03:24:54.043Z,3.34
2023-04-09T03:27:22.190Z,3.32
2023-04-09T03:29:56.426Z,3.31
2023-04-09T03:32:34.715Z,3.30
2023-04-09T03:35:03.343Z,3.31
2023-04-09T03:37:31.889Z,3.33
2023-04-09T03:40:00.178Z,3.33
2023-04-09T03:42:29.230Z,3.34
2023-04-09T03:44:57.350Z,3.33
2023-04-09T03:47:38.213Z,3.33
2023-04-09T03:50:09.171Z,3.31
2023-04-09T03:52:52.783Z,3.30
2023-04-09T03:55:27.211Z,3.29
2023-04-09T03:57:55.594Z,3.29
2023-04-09T04:00:27.606Z,3.28
2023-04-09T04:03:12.269Z,3.27
2023-04-09T04:06:03.151Z,3.25
2023-04-09T04:08:37.247Z,3.24
2023-04-09T04:11:06.191Z,3.25
2023-04-09T04:13:34.496Z,3.24
2023-04-09T04:16:08.927Z,3.26
2023-04-09T04:18:37.887Z,3.27
2023-04-09T04:21:12.922Z,3.25
2023-04-09T04:23:42.143Z,3.24
2023-04-09T04:26:19.094Z,3.24
2023-04-09T04:28:49.970Z,3.23
2023-04-09T04:31:28.658Z,3.26
2023-04-09T04:33:58.955Z,3.27
2023-04-09T04:36:27.797Z,3.29
2023-04-09T04:38:56.319Z,3.31
2023-04-09T04:41:29.692Z,3.35
2023-04-09T04:44:18.684Z,3.38
2023-04-09T04:46:47.657Z,3.40
2023-04-09T04:49:16.099Z,3.46
2023-04-09T04:51:48.158Z,3.48
2023-04-09T04:54:17.341Z,3.47
2023-04-09T04:56:54.319Z,3.51
2023-04-09T04:59:32.686Z,3.55
2023-04-09T05:02:05.192Z,3.60
2023-04-09T05:04:38.015Z,3.65
2023-04-09T05:07:06.442Z,3.68
2023-04-09T05:09:45.854Z,3.74
2023-04-09T05:12:16.399Z,3.77
2023-04-09T05:14:45.138Z,3.77
2023-04-09T05:17:13.316Z,3.80
2023-04-09T05:19:44.373Z,3.81
2023-04-09T05:22:13.207Z,3.81
2023-04-09T05:24:41.640Z,3.81
2023-04-09T05:27:10.402Z,3.78
2023-04-09T05:29:39.464Z,3.75
2023-04-09T05:32:09.710Z,3.73
2023-04-09T05:34:39.604Z,3.72
2023-04-09T05:37:07.685Z,3.68
2023-04-09T05:39:36.462Z,3.66
2023-04-09T05:42:05.784Z,3.68
2023-04-09T05:44:38.975Z,3.65
2023-04-09T05:47:11.251Z,3.63
2023-04-09T05:49:45.638Z,3.60
2023-04-09T05:52:17.149Z,3.58
2023-04-09T05:54:46.494Z,3.60
2023-04-09T05:57:17.179Z,3.59
2023-04-09T05:59:48.950Z,3.61
2023-04-09T06:02:17.500Z,3.62
2023-04-09T06:04:46.135Z,3.62
2023-04-09T06:07:16.617Z,3.66
2023-04-09T06:09:47.102Z,3.69
2023-04-09T06:12:16.520Z,3.76
2023-04-09T06:14:48.673Z,3.81
2023-04-09T06:17:17.164Z,3.87
2023-04-09T06:19:45.348Z,3.93
2023-04-09T06:22:16.286Z,4.03
2023-04-09T06:24:44.456Z,4.12
2023-04-09T06:27:13.496Z,4.23
2023-04-09T06:29:41.623Z,4.35
2023-04-09T06:32:09.772Z,4.47
2023-04-09T06:34:37.791Z,4.64
2023-04-09T06:37:06.401Z,4.71
2023-04-09T06:39:34.681Z,4.80
2023-04-09T06:42:04.076Z,4.89
2023-04-09T06:44:51.951Z,5.05
2023-04-09T06:47:20.240Z,5.14
2023-04-09T06:49:49.773Z,5.26
2023-04-09T06:52:19.145Z,5.39
2023-04-09T06:54:48.020Z,5.47
2023-04-09T06:57:16.174Z,5.50
2023-04-09T06:59:45.298Z,5.62
2023-04-09T07:02:14.017Z,5.66
2023-04-09T07:04:43.134Z,5.63
2023-04-09T07:07:13.806Z,5.69
2023-04-09T07:09:42.989Z,5.84
2023-04-09T07:12:11.682Z,5.93
2023-04-09T07:14:40.822Z,6.02
2023-04-09T07:17:08.916Z,5.94
2023-04-09T07:19:38.020Z,6.03
2023-04-09T07:22:06.279Z,6.20
2023-04-09T07:24:35.541Z,6.29
2023-04-09T07:27:04.398Z,6.39
2023-04-09T07:29:32.655Z,6.51
2023-04-09T07:32:02.779Z,6.60
2023-04-09T07:34:31.098Z,6.80
2023-04-09T07:36:59.400Z,6.94
2023-04-09T07:39:28.356Z,7.08
2023-04-09T07:41:57.971Z,7.07
2023-04-09T07:44:26.061Z,7.24
2023-04-09T07:46:55.755Z,7.39
2023-04-09T07:49:23.989Z,7.41
2023-04-09T07:51:52.374Z,7.60
2023-04-09T07:54:23.888Z,7.39
2023-04-09T07:56:52.709Z,7.49
2023-04-09T07:59:21.464Z,7.63
2023-04-09T08:01:50.206Z,7.66
2023-04-09T08:04:19.621Z,7.61
2023-04-09T08:06:50.839Z,7.69
2023-04-09T08:09:23.927Z,7.80
2023-04-09T08:11:53.082Z,7.96
2023-04-09T08:14:22.039Z,7.95
2023-04-09T08:16:51.520Z,8.05
2023-04-09T08:19:21.879Z,8.19
2023-04-09T08:21:50.894Z,8.24
2023-04-09T08:24:19.199Z,8.33
2023-04-09T08:26:47.571Z,8.32
2023-04-09T08:29:16.928Z,8.28
2023-04-09T08:31:46.149Z,8.36
2023-04-09T08:34:16.204Z,8.48
2023-04-09T08:36:48.230Z,8.44
2023-04-09T08:39:20.960Z,8.59
2023-04-09T08:41:51.233Z,8.70
2023-04-09T08:44:19.568Z,8.75
2023-04-09T08:46:48.798Z,8.88
2023-04-09T08:49:17.120Z,8.90
2023-04-09T08:51:47.573Z,9.02
2023-04-09T08:54:19.152Z,9.07
2023-04-09T08:56:49.256Z,9.20
2023-04-09T08:59:18.740Z,9.20
2023-04-09T09:01:52.892Z,9.20
2023-04-09T09:04:24.607Z,9.28
2023-04-09T09:06:55.416Z,9.34
2023-04-09T09:09:26.914Z,9.46
2023-04-09T09:11:56.038Z,9.56
2023-04-09T09:14:24.497Z,9.62
2023-04-09T09:16:55.762Z,9.79
2023-04-09T09:19:24.398Z,9.94
2023-04-09T09:22:00.624Z,10.03
2023-04-09T09:24:30.471Z,10.29
2023-04-09T09:26:59.265Z,10.33
2023-04-09T09:29:29.860Z,10.55
2023-04-09T09:31:58.505Z,10.81
2023-04-09T09:34:26.764Z,11.07
2023-04-09T09:36:54.897Z,11.41
2023-04-09T09:39:23.685Z,11.65
2023-04-09T09:42:10.421Z,11.82
2023-04-09T09:44:38.563Z,12.13
2023-04-09T09:47:08.324Z,12.44
2023-04-09T09:49:37.449Z,11.83
2023-04-09T09:52:11.127Z,12.02
2023-04-09T09:54:45.855Z,11.86
2023-04-09T09:57:19.047Z,11.65
2023-04-09T09:59:59.011Z,11.75
2023-04-09T10:02:33.064Z,11.80
2023-04-09T10:05:02.328Z,11.70
2023-04-09T10:07:31.750Z,11.53
2023-04-09T10:10:03.295Z,11.65
2023-04-09T10:12:33.252Z,11.57
2023-04-09T10:15:21.571Z,11.48
2023-04-09T10:17:50.767Z,11.78
2023-04-09T10:20:29.398Z,11.90
2023-04-09T10:23:03.113Z,12.05
2023-04-09T10:25:31.748Z,12.03
2023-04-09T10:28:14.794Z,12.33
2023-04-09T10:30:43.524Z,12.78
2023-04-09T10:33:15.039Z,12.80
2023-04-09T10:35:46.740Z,13.00
2023-04-09T10:38:16.123Z,13.21
2023-04-09T10:40:49.919Z,13.64
2023-04-09T10:43:21.227Z,13.94
2023-04-09T10:45:54.582Z,14.42
2023-04-09T10:48:26.250Z,14.42
2023-04-09T10:50:57.944Z,14.20
2023-04-09T10:53:27.719Z,14.23
2023-04-09T10:55:57.596Z,14.11
2023-04-09T10:58:25.684Z,14.38
2023-04-09T11:00:57.216Z,14.57
2023-04-09T11:03:34.712Z,15.03
2023-04-09T11:06:10.216Z,14.81
2023-04-09T11:08:39.300Z,14.91
2023-04-09T11:11:11.495Z,14.91
2023-04-09T11:13:41.807Z,15.52
2023-04-09T11:16:24.768Z,15.50
2023-04-09T11:18:59.166Z,15.52
2023-04-09T11:21:29.945Z,15.98
2023-04-09T11:24:00.968Z,15.95
2023-04-09T11:26:36.639Z,15.62
2023-04-09T11:29:07.348Z,15.22
2023-04-09T11:31:36.472Z,14.79
2023-04-09T11:34:14.535Z,14.33
2023-04-09T11:36:49.984Z,14.63
2023-04-09T11:39:18.701Z,14.52
2023-04-09T11:41:48.254Z,14.47
2023-04-09T11:44:16.898Z,14.28
2023-04-09T11:46:46.337Z,13.80
2023-04-09T11:49:15.736Z,13.68
2023-04-09T11:51:43.862Z,13.44
2023-04-09T11:54:12.652Z,13.33
2023-04-09T11:56:41.603Z,13.25
2023-04-09T11:59:10.856Z,13.22
2023-04-09T12:01:39.561Z,13.23
2023-04-09T12:04:08.115Z,12.97
2023-04-09T12:06:43.096Z,13.24
2023-04-09T12:09:13.845Z,13.31
2023-04-09T12:11:45.015Z,13.17
2023-04-09T12:14:18.351Z,12.97
2023-04-09T12:16:52.073Z,12.96
2023-04-09T12:19:21.816Z,13.09
2023-04-09T12:21:53.123Z,13.11
2023-04-09T12:24:24.469Z,13.19
2023-04-09T12:26:52.606Z,13.38
2023-04-09T12:29:21.820Z,13.43
2023-04-09T12:31:50.357Z,13.51
2023-04-09T12:34:18.599Z,13.54
2023-04-09T12:36:46.938Z,13.73
2023-04-09T12:39:14.986Z,13.19
2023-04-09T12:41:45.414Z,13.58
2023-04-09T12:44:16.050Z,13.75
2023-04-09T12:46:45.692Z,13.88
2023-04-09T12:49:14.581Z,13.77
2023-04-09T12:51:42.842Z,14.05
2023-04-09T12:54:11.379Z,14.39
2023-04-09T12:56:39.678Z,15.09
2023-04-09T12:59:07.729Z,15.39
2023-04-09T13:01:36.171Z,16.02
2023-04-09T13:04:04.810Z,16.52
2023-04-09T13:06:33.139Z,17.69
2023-04-09T13:09:01.519Z,17.77
2023-04-09T13:11:29.884Z,18.00
2023-04-09T13:13:58.453Z,18.42
2023-04-09T13:16:26.929Z,18.72
2023-04-09T13:18:55.494Z,17.80
2023-04-09T13:21:23.887Z,17.88
2023-04-09T13:23:53.897Z,17.74
2023-04-09T13:26:24.530Z,16.62
2023-04-09T13:28:54.150Z,15.46
2023-04-09T13:31:22.755Z,14.89
2023-04-09T13:33:53.647Z,14.55
2023-04-09T13:36:21.881Z,14.31
2023-04-09T13:38:50.551Z,14.04
2023-04-09T13:41:20.796Z,14.13
2023-04-09T13:43:48.914Z,13.56
2023-04-09T13:46:17.588Z,13.01
2023-04-09T13:48:45.949Z,12.97
2023-04-09T13:51:15.492Z,12.62
2023-04-09T13:53:46.190Z,12.55
2023-04-09T13:56:15.462Z,12.67
2023-04-09T13:58:43.845Z,12.80
2023-04-09T14:01:12.204Z,12.99
2023-04-09T14:03:41.156Z,13.07
2023-04-09T14:06:12.367Z,12.98
2023-04-09T14:08:41.729Z,12.89
2023-04-09T14:11:14.118Z,13.04
2023-04-09T14:13:43.086Z,13.23
2023-04-09T14:16:11.588Z,12.95
2023-04-09T14:18:40.162Z,13.05
2023-04-09T14:21:10.239Z,13.03
2023-04-09T14:23:39.820Z,12.90
2023-04-09T14:26:08.509Z,13.03
2023-04-09T14:28:36.679Z,12.99
2023-04-09T14:31:05.890Z,13.07
2023-04-09T14:33:34.170Z,13.14
2023-04-09T14:36:02.857Z,13.19
2023-04-09T14:38:31.509Z,13.12
2023-04-09T14:41:01.801Z,12.99
2023-04-09T14:43:30.715Z,12.86
2023-04-09T14:46:04.192Z,12.69
2023-04-09T14:48:33.284Z,12.73
2023-04-09T14:51:04.683Z,12.72
2023-04-09T14:53:32.835Z,12.63
2023-04-09T14:56:01.301Z,12.73
2023-04-09T14:58:30.664Z,12.65
2023-04-09T15:00:58.856Z,12.62
2023-04-09T15:03:27.246Z,12.74
2023-04-09T15:05:55.642Z,12.75
2023-04-09T15:08:24.024Z,12.82
2023-04-09T15:10:53.100Z,12.78
2023-04-09T15:13:21.675Z,12.70
2023-04-09T15:15:50.436Z,12.76
2023-04-09T15:18:21.317Z,12.91
2023-04-09T15:20:51.065Z,13.37
2023-04-09T15:23:19.534Z,13.16
2023-04-09T15:25:49.019Z,13.06
2023-04-09T15:28:18.185Z,12.90
2023-04-09T15:30:46.409Z,12.97
2023-04-09T15:33:14.722Z,12.81
2023-04-09T15:35:43.801Z,12.74
2023-04-09T15:38:13.072Z,12.62
2023-04-09T15:40:42.856Z,12.41
2023-04-09T15:43:12.761Z,12.70
2023-04-09T15:45:42.908Z,12.83
2023-04-09T15:48:11.736Z,12.63
2023-04-09T15:50:42.898Z,12.94
2023-04-09T15:53:11.307Z,13.18
2023-04-09T15:55:39.946Z,12.98
2023-04-09T15:58:09.033Z,12.83
2023-04-09T16:00:38.614Z,12.64
2023-04-09T16:03:06.693Z,12.50
2023-04-09T16:05:35.136Z,12.41
2023-04-09T16:08:03.706Z,12.25
2023-04-09T16:10:32.028Z,11.86
2023-04-09T16:13:00.352Z,11.75
2023-04-09T16:15:28.528Z,11.62
2023-04-09T16:17:57.413Z,11.59
2023-04-09T16:20:25.686Z,11.52
2023-04-09T16:22:54.160Z,11.41
2023-04-09T16:25:25.131Z,11.28
2023-04-09T16:27:53.296Z,11.14
2023-04-09T16:30:22.322Z,11.10
2023-04-09T16:32:50.476Z,11.01
2023-04-09T16:35:19.810Z,10.86
2023-04-09T16:37:48.360Z,10.76
2023-04-09T16:40:18.598Z,10.69
2023-04-09T16:42:46.729Z,10.59
2023-04-09T16:45:15.018Z,10.48
2023-04-09T16:47:43.179Z,10.36
2023-04-09T16:50:12.120Z,10.28
2023-04-09T16:52:43.374Z,10.18
2023-04-09T16:55:13.594Z,10.04
2023-04-09T16:57:42.457Z,9.93
2023-04-09T17:00:12.800Z,9.82
2023-04-09T17:02:41.029Z,9.74
2023-04-09T17:05:10.708Z,9.65
2023-04-09T17:07:40.238Z,9.55
2023-04-09T17:10:09.204Z,9.46
2023-04-09T17:12:40.590Z,9.37
2023-04-09T17:15:09.671Z,9.27
2023-04-09T17:17:41.711Z,9.18
2023-04-09T17:20:10.565Z,9.08
2023-04-09T17:22:39.396Z,9.01
2023-04-09T17:25:08.857Z,8.94
2023-04-09T17:27:37.109Z,8.87
2023-04-09T17:30:05.995Z,8.81
2023-04-09T17:32:34.680Z,8.75
2023-04-09T17:35:03.827Z,8.70
2023-04-09T17:37:32.376Z,8.67
2023-04-09T17:40:02.598Z,8.64
2023-04-09T17:42:31.222Z,8.62
2023-04-09T17:45:01.568Z,8.59
2023-04-09T17:47:30.062Z,8.57
2023-04-09T17:50:00.011Z,8.55
2023-04-09T17:52:29.648Z,8.53
2023-04-09T17:54:58.840Z,8.50
2023-04-09T17:57:26.963Z,8.48
2023-04-09T17:59:58.112Z,8.44
2023-04-09T18:02:26.700Z,8.39
2023-04-09T18:05:01.695Z,8.37
2023-04-09T18:07:33.532Z,8.33
2023-04-09T18:10:03.341Z,8.29
2023-04-09T18:12:32.674Z,8.25
2023-04-09T18:15:01.498Z,8.21
2023-04-09T18:17:31.784Z,8.16
2023-04-09T18:20:01.071Z,8.11
2023-04-09T18:22:30.342Z,8.06
2023-04-09T18:24:58.604Z,8.02
2023-04-09T18:27:27.060Z,7.98
2023-04-09T18:29:56.030Z,7.92
2023-04-09T18:32:25.457Z,7.85
2023-04-09T18:34:53.929Z,7.80
2023-04-09T18:37:22.575Z,7.75
2023-04-09T18:39:51.712Z,7.70
2023-04-09T18:42:19.918Z,7.67
2023-04-09T18:44:48.095Z,7.60
2023-04-09T18:47:16.537Z,7.54
2023-04-09T18:49:45.922Z,7.48
2023-04-09T18:52:14.039Z,7.45
2023-04-09T18:54:43.392Z,7.38
2023-04-09T18:57:12.086Z,7.33
2023-04-09T18:59:41.451Z,7.27
2023-04-09T19:02:10.257Z,7.20
2023-04-09T19:04:42.099Z,7.14
2023-04-09T19:07:12.183Z,7.08
2023-04-09T19:09:41.785Z,7.02
2023-04-09T19:12:10.047Z,6.94
2023-04-09T19:14:40.264Z,6.86
2023-04-09T19:17:08.773Z,6.79
2023-04-09T19:19:37.460Z,6.72
2023-04-09T19:22:05.528Z,6.67
2023-04-09T19:24:36.212Z,6.61
2023-04-09T19:27:09.673Z,6.54
2023-04-09T19:29:38.228Z,6.48
2023-04-09T19:32:09.327Z,6.43
2023-04-09T19:34:38.440Z,6.38
2023-04-09T19:37:09.623Z,6.34
2023-04-09T19:39:38.272Z,6.30
2023-04-09T19:42:06.523Z,6.26
2023-04-09T19:44:35.154Z,6.22
2023-04-09T19:47:04.388Z,6.17
2023-04-09T19:49:35.659Z,6.12
2023-04-09T19:52:08.111Z,6.05
2023-04-09T19:54:37.804Z,6.01
2023-04-09T19:57:07.879Z,5.96
2023-04-09T19:59:39.784Z,5.92
2023-04-09T20:02:08.373Z,5.89
2023-04-09T20:04:37.974Z,5.85
2023-04-09T20:07:07.556Z,5.82
2023-04-09T20:09:42.619Z,5.79
2023-04-09T20:12:13.861Z,5.76
2023-04-09T20:14:42.283Z,5.75
2023-04-09T20:17:10.844Z,5.75
2023-04-09T20:19:40.307Z,5.72
2023-04-09T20:22:09.005Z,5.69
2023-04-09T20:24:38.434Z,5.65
2023-04-09T20:27:06.896Z,5.59
2023-04-09T20:29:35.468Z,5.54
2023-04-09T20:32:04.661Z,5.50
2023-04-09T20:34:33.104Z,5.46
2023-04-09T20:37:02.907Z,5.40
2023-04-09T20:39:41.846Z,5.35
2023-04-09T20:42:09.933Z,5.30
2023-04-09T20:44:38.305Z,5.23
2023-04-09T20:47:10.718Z,5.19
2023-04-09T20:49:40.828Z,5.12
2023-04-09T20:52:12.385Z,5.07
2023-04-09T20:54:41.034Z,5.00
2023-04-09T20:57:12.094Z,4.95
2023-04-09T20:59:42.469Z,4.89
2023-04-09T21:02:13.183Z,4.85
2023-04-09T21:04:41.654Z,4.81
2023-04-09T21:07:12.395Z,4.78
2023-04-09T21:09:40.574Z,4.75
2023-04-09T21:12:10.064Z,4.73
2023-04-09T21:14:39.078Z,4.69
2023-04-09T21:17:07.426Z,4.65
2023-04-09T21:19:38.307Z,4.64
2023-04-09T21:22:06.370Z,4.62
2023-04-09T21:24:38.499Z,4.58
2023-04-09T21:27:08.682Z,4.56
2023-04-09T21:29:39.334Z,4.53
2023-04-09T21:32:08.301Z,4.51
2023-04-09T21:34:37.424Z,4.47
2023-04-09T21:37:08.746Z,4.44
2023-04-09T21:39:39.131Z,4.43
2023-04-09T21:42:09.357Z,4.41
2023-04-09T21:44:41.474Z,4.43
2023-04-09T21:47:10.108Z,4.43
2023-04-09T21:49:42.171Z,4.45
2023-04-09T21:52:15.039Z,4.45
2023-04-09T21:54:44.022Z,4.47
2023-04-09T21:57:12.725Z,4.49
2023-04-09T21:59:41.660Z,4.51
2023-04-09T22:02:10.947Z,4.50
2023-04-09T22:04:42.662Z,4.54
2023-04-09T22:07:11.974Z,4.52
2023-04-09T22:09:40.175Z,4.52
2023-04-09T22:12:08.589Z,4.53
2023-04-09T22:14:37.942Z,4.54
2023-04-09T22:17:09.148Z,4.55
2023-04-09T22:19:37.295Z,4.55
2023-04-09T22:22:06.147Z,4.56
2023-04-09T22:24:34.393Z,4.53
2023-04-09T22:27:03.241Z,4.55
2023-04-09T22:29:34.277Z,4.55
2023-04-09T22:32:03.907Z,4.55
2023-04-09T22:34:32.108Z,4.55
2023-04-09T22:37:00.317Z,4.55
2023-04-09T22:39:28.639Z,4.56
2023-04-09T22:41:59.316Z,4.55
2023-04-09T22:44:30.913Z,4.53
2023-04-09T22:46:59.361Z,4.54
2023-04-09T22:49:28.486Z,4.53
2023-04-09T22:51:56.694Z,4.53
2023-04-09T22:54:26.010Z,4.53
2023-04-09T22:56:54.595Z,4.52
2023-04-09T22:59:30.345Z,4.52
2023-04-09T23:02:05.909Z,4.51
2023-04-09T23:04:35.474Z,4.49
2023-04-09T23:07:03.840Z,4.48
2023-04-09T23:09:32.093Z,4.46
2023-04-09T23:12:01.694Z,4.45
2023-04-09T23:14:32.412Z,4.41
2023-04-09T23:17:00.783Z,4.37
2023-04-09T23:19:28.871Z,4.35
2023-04-09T23:21:57.319Z,4.32
2023-04-09T23:24:25.410Z,4.31
2023-04-09T23:26:53.665Z,4.28
2023-04-09T23:29:23.268Z,4.27
2023-04-09T23:31:52.118Z,4.24
2023-04-09T23:34:21.869Z,4.22
2023-04-09T23:36:50.056Z,4.19
2023-04-09T23:39:20.788Z,4.18
2023-04-09T23:41:51.247Z,4.16
2023-04-09T23:44:19.470Z,4.15
2023-04-09T23:46:47.820Z,4.12
2023-04-09T23:49:18.770Z,4.10
2023-04-09T23:51:47.637Z,4.09
2023-04-09T23:54:16.921Z,4.08
2023-04-09T23:56:47.415Z,4.07
2023-04-09T23:59:16.102Z,4.04
